createdAt,value
2023-05-06T00:01:24.310Z,6.00
2023-05-06T00:03:51.528Z,6.82
2023-05-06T00:06:18.076Z,6.35
2023-05-06T00:08:45.234Z,7.05
2023-05-06T00:11:11.964Z,7.00
2023-05-06T00:13:38.364Z,6.53
2023-05-06T00:16:05.227Z,6.13
2023-05-06T00:18:31.784Z,6.70
2023-05-06T00:20:58.345Z,8.07
2023-05-06T00:23:24.856Z,7.03
2023-05-06T00:25:53.820Z,7.83
2023-05-06T00:28:20.346Z,7.72
2023-05-06T00:30:46.777Z,8.23
2023-05-06T00:33:13.230Z,9.10
2023-05-06T00:35:39.669Z,8.35
2023-05-06T00:38:11.699Z,9.20
2023-05-06T00:40:38.799Z,10.32
2023-05-06T00:43:06.744Z,9.55
2023-05-06T00:45:33.333Z,10.57
2023-05-06T00:48:04.268Z,8.73
2023-05-06T00:50:32.564Z,8.48
2023-05-06T00:52:59.964Z,9.02
2023-05-06T00:55:27.393Z,8.65
2023-05-06T01:00:21.529Z,8.63
2023-05-06T01:02:48.806Z,8.38
2023-05-06T01:05:18.646Z,8.20
2023-05-06T01:08:11.027Z,8.50
2023-05-06T01:11:00.781Z,8.60
2023-05-06T01:13:52.285Z,8.43
2023-05-06T01:16:23.353Z,8.32
2023-05-06T01:18:51.741Z,8.77
2023-05-06T01:21:19.306Z,8.88
2023-05-06T01:23:53.621Z,9.68
2023-05-06T01:26:20.061Z,7.30
2023-05-06T01:28:46.469Z,8.27
2023-05-06T01:31:17.262Z,7.90
2023-05-06T01:33:56.027Z,8.50
2023-05-06T01:36:46.045Z,8.90
2023-05-06T01:39:14.202Z,8.38
2023-05-06T01:41:41.909Z,8.93
2023-05-06T01:44:08.851Z,8.20
2023-05-06T01:46:35.848Z,8.30
2023-05-06T01:49:05.832Z,8.32
2023-05-06T01:51:33.675Z,8.05
2023-05-06T01:54:01.180Z,7.75
2023-05-06T01:58:59.373Z,6.93
2023-05-06T02:01:26.412Z,6.65
2023-05-06T02:03:53.096Z,5.78
2023-05-06T02:06:19.752Z,6.45
2023-05-06T02:08:46.297Z,6.38
2023-05-06T02:11:12.745Z,6.70
2023-05-06T02:13:39.135Z,7.05
2023-05-06T02:16:05.855Z,7.20
2023-05-06T02:18:32.410Z,6.75
2023-05-06T02:20:58.880Z,7.82
2023-05-06T02:23:25.290Z,7.25
2023-05-06T02:25:51.831Z,7.60
2023-05-06T02:28:18.316Z,7.63
2023-05-06T02:30:45.267Z,7.13
2023-05-06T02:33:11.699Z,7.60
2023-05-06T02:35:38.149Z,7.32
2023-05-06T02:38:04.580Z,6.75
2023-05-06T02:40:30.976Z,8.00
2023-05-06T02:42:57.430Z,7.43
2023-05-06T02:45:23.929Z,8.57
2023-05-06T02:47:50.396Z,9.00
2023-05-06T02:50:16.985Z,8.23
2023-05-06T02:52:43.500Z,7.87
2023-05-06T02:55:10.230Z,8.02
2023-05-06T02:57:36.952Z,7.07
2023-05-06T03:00:06.106Z,8.18
2023-05-06T03:02:32.560Z,8.48
2023-05-06T03:04:58.988Z,7.70
2023-05-06T03:07:26.477Z,9.18
2023-05-06T03:12:19.199Z,8.68
2023-05-06T03:14:45.629Z,8.55
2023-05-06T03:17:12.103Z,9.63
2023-05-06T03:19:38.543Z,10.13
2023-05-06T03:22:04.911Z,10.43
2023-05-06T03:24:31.292Z,11.45
2023-05-06T03:26:58.530Z,11.68
2023-05-06T03:29:25.035Z,11.45
2023-05-06T03:31:51.575Z,11.98
2023-05-06T03:34:18.094Z,11.10
2023-05-06T03:36:45.950Z,12.30
2023-05-06T03:39:12.564Z,12.07
2023-05-06T03:41:39.060Z,12.07
2023-05-06T03:44:05.499Z,11.27
2023-05-06T03:46:32.792Z,12.73
2023-05-06T03:49:00.649Z,12.70
2023-05-06T03:51:27.666Z,11.32
2023-05-06T03:53:55.116Z,13.93
2023-05-06T03:58:49.511Z,13.00
2023-05-06T04:01:18.233Z,12.07
2023-05-06T04:03:45.203Z,11.98
2023-05-06T04:06:11.694Z,13.27
2023-05-06T04:08:38.471Z,12.98
2023-05-06T04:11:06.277Z,13.50
2023-05-06T04:13:33.998Z,14.50
2023-05-06T04:16:01.287Z,14.55
2023-05-06T04:18:28.065Z,14.07
2023-05-06T04:20:54.563Z,15.82
2023-05-06T04:23:21.581Z,15.27
2023-05-06T04:25:51.026Z,16.50
2023-05-06T04:28:19.670Z,15.77
2023-05-06T04:30:47.112Z,16.92
2023-05-06T04:35:53.146Z,15.60
2023-05-06T04:38:25.736Z,14.70
2023-05-06T04:40:52.466Z,14.93
2023-05-06T04:43:18.963Z,14.93
2023-05-06T04:45:49.352Z,15.27
2023-05-06T04:48:19.791Z,15.88
2023-05-06T04:50:46.891Z,18.13
2023-05-06T04:53:15.230Z,18.55
2023-05-06T04:55:43.928Z,19.63
2023-05-06T04:58:10.465Z,20.55
2023-05-06T05:00:41.200Z,21.63
2023-05-06T05:03:07.675Z,20.50
2023-05-06T05:05:35.742Z,21.33
2023-05-06T05:08:02.246Z,22.45
2023-05-06T05:10:28.745Z,22.60
2023-05-06T05:12:55.524Z,22.20
2023-05-06T05:15:22.083Z,23.25
2023-05-06T05:17:49.299Z,23.63
2023-05-06T05:20:15.809Z,23.40
2023-05-06T05:22:42.305Z,23.63
2023-05-06T05:25:09.255Z,27.20
2023-05-06T05:27:43.082Z,26.52
2023-05-06T05:30:09.940Z,26.90
2023-05-06T05:32:38.462Z,27.80
2023-05-06T05:35:05.557Z,27.60
2023-05-06T05:37:32.566Z,28.33
2023-05-06T05:39:59.008Z,28.00
2023-05-06T05:42:25.449Z,29.77
2023-05-06T05:44:51.904Z,29.50
2023-05-06T05:47:18.416Z,29.80
2023-05-06T05:49:45.071Z,28.77
2023-05-06T05:52:11.847Z,27.70
2023-05-06T05:54:38.402Z,28.50
2023-05-06T05:57:04.994Z,27.73
2023-05-06T05:59:32.761Z,29.42
2023-05-06T06:02:00.116Z,28.23
2023-05-06T06:06:53.893Z,30.65
2023-05-06T06:09:20.552Z,31.90
2023-05-06T06:11:47.094Z,35.08
2023-05-06T06:14:19.416Z,33.70
2023-05-06T06:16:47.947Z,32.58
2023-05-06T06:19:15.166Z,35.00
2023-05-06T06:21:45.805Z,34.08
2023-05-06T06:24:13.047Z,33.17
2023-05-06T06:26:39.620Z,32.42
2023-05-06T06:29:08.072Z,35.15
2023-05-06T06:31:34.859Z,31.80
2023-05-06T06:34:05.251Z,32.65
2023-05-06T06:36:32.306Z,32.58
2023-05-06T06:38:59.686Z,32.97
2023-05-06T06:43:54.620Z,28.42
2023-05-06T06:46:21.206Z,27.47
2023-05-06T06:48:48.099Z,28.55
2023-05-06T06:51:14.570Z,28.05
2023-05-06T06:53:41.284Z,29.00
2023-05-06T06:56:12.354Z,27.83
2023-05-06T06:58:38.779Z,29.40
2023-05-06T07:01:05.468Z,29.53
2023-05-06T07:03:38.011Z,28.10
2023-05-06T07:06:04.398Z,27.67
2023-05-06T07:08:30.892Z,28.80
2023-05-06T07:10:57.265Z,28.53
2023-05-06T07:13:23.782Z,27.10
2023-05-06T07:16:15.290Z,29.15
2023-05-06T07:18:41.811Z,31.20
2023-05-06T07:21:08.247Z,29.08
2023-05-06T07:23:35.734Z,28.70
2023-05-06T07:26:02.177Z,28.95
2023-05-06T07:28:28.661Z,29.67
2023-05-06T07:30:55.306Z,28.87
2023-05-06T07:33:21.809Z,29.95
2023-05-06T07:35:49.383Z,30.05
2023-05-06T07:38:15.770Z,30.83
2023-05-06T07:40:42.444Z,28.77
2023-05-06T07:43:09.901Z,27.63
2023-05-06T07:45:37.399Z,26.55
2023-05-06T07:48:04.129Z,27.25
2023-05-06T07:50:31.612Z,24.42
2023-05-06T07:52:58.484Z,23.58
2023-05-06T07:55:24.862Z,23.27
2023-05-06T07:57:55.689Z,25.47
2023-05-06T08:00:23.179Z,23.75
2023-05-06T08:02:49.761Z,23.50
2023-05-06T08:05:20.406Z,23.65
2023-05-06T08:07:47.033Z,23.80
2023-05-06T08:10:13.469Z,23.67
2023-05-06T08:12:40.054Z,22.87
2023-05-06T08:15:07.198Z,23.73
2023-05-06T08:17:34.938Z,23.20
2023-05-06T08:20:03.523Z,22.08
2023-05-06T08:22:29.950Z,20.27
2023-05-06T08:24:57.372Z,20.55
2023-05-06T08:27:24.850Z,18.73
2023-05-06T08:29:51.456Z,21.27
2023-05-06T08:32:18.546Z,21.83
2023-05-06T08:34:44.998Z,21.38
2023-05-06T08:37:11.497Z,22.10
2023-05-06T08:39:43.238Z,20.10
2023-05-06T08:42:11.678Z,22.58
2023-05-06T08:44:38.817Z,21.63
2023-05-06T08:47:05.450Z,21.67
2023-05-06T08:49:31.979Z,17.85
2023-05-06T08:52:04.950Z,18.33
2023-05-06T08:54:35.502Z,19.63
2023-05-06T08:57:10.313Z,15.68
2023-05-06T08:59:40.136Z,16.98
2023-05-06T09:02:08.312Z,15.57
2023-05-06T09:04:35.182Z,16.35
2023-05-06T09:07:12.753Z,15.15
2023-05-06T09:09:39.159Z,16.08
2023-05-06T09:12:13.740Z,16.23
2023-05-06T09:14:41.109Z,15.07
2023-05-06T09:17:26.573Z,14.60
2023-05-06T09:19:59.110Z,15.00
2023-05-06T09:22:30.809Z,15.10
2023-05-06T09:24:58.953Z,15.05
2023-05-06T09:27:29.164Z,14.88
2023-05-06T09:30:06.539Z,14.60
2023-05-06T09:32:34.101Z,14.85
2023-05-06T09:35:07.017Z,14.65
2023-05-06T09:37:33.380Z,14.23
2023-05-06T09:40:01.182Z,13.15
2023-05-06T09:42:29.576Z,12.93
2023-05-06T09:45:02.718Z,12.38
2023-05-06T09:47:35.194Z,12.43
2023-05-06T09:50:04.229Z,11.35
2023-05-06T09:52:31.703Z,11.07
2023-05-06T09:55:00.673Z,11.18
2023-05-06T09:57:30.863Z,10.48
2023-05-06T09:59:58.233Z,10.75
2023-05-06T10:04:57.408Z,9.60
2023-05-06T10:07:25.617Z,10.50
2023-05-06T10:09:54.320Z,10.35
2023-05-06T10:12:26.728Z,9.75
2023-05-06T10:14:53.301Z,9.93
2023-05-06T10:17:24.262Z,10.35
2023-05-06T10:19:55.328Z,10.25
2023-05-06T10:22:40.492Z,10.35
2023-05-06T10:25:22.798Z,10.60
2023-05-06T10:27:49.826Z,10.15
2023-05-06T10:30:19.258Z,8.75
2023-05-06T10:32:46.449Z,8.90
2023-05-06T10:35:29.976Z,9.25
2023-05-06T10:37:57.273Z,9.10
2023-05-06T10:40:24.378Z,8.25
2023-05-06T10:42:51.487Z,8.18
2023-05-06T10:45:20.127Z,7.20
2023-05-06T10:47:55.960Z,7.15
2023-05-06T10:50:29.410Z,6.60
2023-05-06T10:53:04.126Z,7.25
2023-05-06T10:55:35.923Z,6.75
2023-05-06T10:58:04.143Z,6.82
2023-05-06T11:00:32.400Z,6.72
2023-05-06T11:03:02.277Z,6.63
2023-05-06T11:05:29.156Z,6.50
2023-05-06T11:08:15.427Z,5.57
2023-05-06T11:10:42.020Z,5.80
2023-05-06T11:13:28.513Z,5.75
2023-05-06T11:15:57.057Z,5.60
2023-05-06T11:18:30.910Z,5.80
2023-05-06T11:21:00.288Z,5.80
2023-05-06T11:23:42.130Z,6.18
2023-05-06T11:26:09.722Z,6.03
2023-05-06T11:28:36.341Z,6.43
2023-05-06T11:31:02.935Z,6.30
2023-05-06T11:33:33.484Z,5.93
2023-05-06T11:36:00.800Z,6.90
2023-05-06T11:38:44.747Z,6.38
2023-05-06T11:41:11.798Z,7.00
2023-05-06T11:43:38.520Z,5.75
2023-05-06T11:48:32.170Z,6.10
2023-05-06T11:50:58.577Z,5.57
2023-05-06T11:53:26.607Z,4.90
2023-05-06T11:55:55.233Z,5.22
2023-05-06T11:58:28.138Z,5.10
2023-05-06T12:00:56.625Z,5.30
2023-05-06T12:03:24.941Z,4.95
2023-05-06T12:05:54.370Z,5.50
2023-05-06T12:08:29.678Z,4.78
2023-05-06T12:11:00.581Z,4.55
2023-05-06T12:13:28.273Z,4.60
2023-05-06T12:16:00.040Z,4.60
2023-05-06T12:18:27.484Z,4.60
2023-05-06T12:20:54.898Z,4.85
2023-05-06T12:23:24.495Z,4.88
2023-05-06T12:26:06.515Z,4.47
2023-05-06T12:28:35.410Z,3.95
2023-05-06T12:31:18.339Z,3.85
2023-05-06T12:33:47.264Z,4.78
2023-05-06T12:36:13.743Z,5.78
2023-05-06T12:41:16.010Z,4.32
2023-05-06T12:43:42.425Z,4.07
2023-05-06T12:48:38.615Z,5.00
2023-05-06T12:51:19.112Z,4.53
2023-05-06T12:53:55.629Z,5.25
2023-05-06T12:56:22.471Z,5.25
2023-05-06T12:58:59.437Z,6.72
2023-05-06T13:01:26.134Z,7.72
2023-05-06T13:03:53.740Z,7.88
2023-05-06T13:06:20.517Z,7.53
2023-05-06T13:08:46.914Z,8.38
2023-05-06T13:13:39.825Z,8.60
2023-05-06T13:16:07.584Z,8.38
2023-05-06T13:18:34.072Z,5.97
2023-05-06T13:21:00.771Z,6.10
2023-05-06T13:23:27.485Z,5.82
2023-05-06T13:26:05.368Z,5.32
2023-05-06T13:28:33.476Z,5.60
2023-05-06T13:31:00.125Z,4.97
2023-05-06T13:33:26.727Z,5.88
2023-05-06T13:35:53.223Z,5.63
2023-05-06T13:38:19.686Z,4.05
2023-05-06T13:40:48.596Z,3.40
2023-05-06T13:43:16.144Z,3.55
2023-05-06T13:45:44.182Z,4.00
2023-05-06T13:48:12.069Z,3.60
2023-05-06T13:50:38.636Z,3.80
2023-05-06T13:53:05.441Z,3.97
2023-05-06T13:55:32.105Z,4.20
2023-05-06T13:57:59.843Z,4.45
2023-05-06T14:00:26.356Z,5.28
2023-05-06T14:02:52.855Z,4.53
2023-05-06T14:05:19.394Z,4.28
2023-05-06T14:07:46.850Z,4.18
2023-05-06T14:10:14.520Z,4.00
2023-05-06T14:12:41.915Z,3.97
2023-05-06T14:15:09.799Z,4.47
2023-05-06T14:17:36.978Z,4.50
2023-05-06T14:20:05.392Z,4.00
2023-05-06T14:22:32.792Z,3.83
2023-05-06T14:24:59.204Z,4.57
2023-05-06T14:27:26.626Z,4.20
2023-05-06T14:29:53.177Z,4.50
2023-05-06T14:32:19.681Z,4.85
2023-05-06T14:34:46.154Z,5.90
2023-05-06T14:37:12.545Z,5.95
2023-05-06T14:39:39.584Z,5.97
2023-05-06T14:42:06.111Z,6.45
2023-05-06T14:44:34.565Z,6.25
2023-05-06T14:47:00.977Z,7.28
2023-05-06T14:49:27.554Z,6.15
2023-05-06T14:51:59.792Z,5.78
2023-05-06T14:54:26.883Z,6.22
2023-05-06T14:56:53.319Z,6.45
2023-05-06T14:59:19.786Z,4.85
2023-05-06T15:01:46.293Z,4.32
2023-05-06T15:06:40.203Z,4.45
2023-05-06T15:09:07.042Z,4.22
2023-05-06T15:11:33.465Z,3.85
2023-05-06T15:14:00.069Z,4.68
2023-05-06T15:18:58.999Z,4.88
2023-05-06T15:21:25.443Z,4.68
2023-05-06T15:23:56.170Z,4.40
2023-05-06T15:26:24.103Z,3.97
2023-05-06T15:28:50.703Z,4.32
2023-05-06T15:33:43.697Z,4.57
2023-05-06T15:36:10.845Z,7.97
2023-05-06T15:38:59.650Z,8.38
2023-05-06T15:41:33.964Z,8.52
2023-05-06T15:44:06.165Z,8.23
2023-05-06T15:46:33.147Z,8.10
2023-05-06T15:49:15.497Z,7.80
2023-05-06T15:51:44.655Z,8.70
2023-05-06T15:54:18.186Z,8.73
2023-05-06T15:56:46.001Z,9.05
2023-05-06T15:59:12.997Z,9.00
2023-05-06T16:04:09.701Z,8.63
2023-05-06T16:09:08.980Z,8.50
2023-05-06T16:11:35.473Z,8.70
2023-05-06T16:14:01.899Z,8.85
2023-05-06T16:16:28.402Z,8.27
2023-05-06T16:18:54.860Z,8.50
2023-05-06T16:21:21.309Z,8.02
2023-05-06T16:23:53.680Z,8.38
2023-05-06T16:26:20.196Z,8.10
2023-05-06T16:28:46.655Z,8.10
2023-05-06T16:31:13.121Z,7.72
2023-05-06T16:33:39.628Z,7.50
2023-05-06T16:36:06.421Z,7.40
2023-05-06T16:38:34.103Z,7.47
2023-05-06T16:41:00.703Z,8.13
2023-05-06T16:43:27.696Z,7.88
2023-05-06T16:45:54.116Z,7.35
2023-05-06T16:48:20.750Z,8.07
2023-05-06T16:50:53.246Z,7.47
2023-05-06T16:53:19.750Z,7.47
2023-05-06T16:55:53.471Z,8.60
2023-05-06T16:58:19.834Z,7.80
2023-05-06T17:00:55.782Z,8.40
2023-05-06T17:03:22.540Z,8.18
2023-05-06T17:05:48.961Z,8.73
2023-05-06T17:08:22.083Z,8.27
2023-05-06T17:10:59.826Z,9.20
2023-05-06T17:13:26.433Z,9.43
2023-05-06T17:16:06.486Z,8.90
2023-05-06T17:18:32.925Z,9.55
2023-05-06T17:21:01.828Z,9.73
2023-05-06T17:23:29.586Z,9.38
2023-05-06T17:25:57.091Z,10.88
2023-05-06T17:28:23.511Z,10.88
2023-05-06T17:30:51.077Z,10.95
2023-05-06T17:33:17.594Z,10.75
2023-05-06T17:35:44.621Z,10.23
2023-05-06T17:38:12.088Z,9.70
2023-05-06T17:40:38.719Z,9.27
2023-05-06T17:43:05.219Z,10.10
2023-05-06T17:45:31.706Z,9.68
2023-05-06T17:47:58.435Z,9.35
2023-05-06T17:50:24.905Z,9.55
2023-05-06T17:52:54.426Z,8.68
2023-05-06T17:55:26.811Z,9.00
2023-05-06T17:57:53.476Z,9.35
2023-05-06T18:00:20.149Z,8.80
2023-05-06T18:02:47.083Z,9.40
2023-05-06T18:05:16.579Z,9.20
2023-05-06T18:07:43.060Z,8.50
2023-05-06T18:10:10.131Z,8.82
2023-05-06T18:12:39.885Z,8.60
2023-05-06T18:15:07.132Z,9.20
2023-05-06T18:17:34.292Z,8.63
2023-05-06T18:20:00.816Z,7.97
2023-05-06T18:22:27.241Z,9.00
2023-05-06T18:24:55.337Z,8.18
2023-05-06T18:27:22.671Z,8.43
2023-05-06T18:29:49.106Z,9.05
2023-05-06T18:32:15.622Z,8.80
2023-05-06T18:34:46.147Z,9.00
2023-05-06T18:37:12.624Z,9.02
2023-05-06T18:39:42.891Z,9.65
2023-05-06T18:42:09.826Z,7.85
2023-05-06T18:44:36.395Z,5.03
2023-05-06T18:47:02.924Z,3.60
2023-05-06T18:49:31.442Z,2.97
2023-05-06T18:51:57.996Z,2.47
2023-05-06T18:54:26.706Z,3.65
2023-05-06T18:57:02.256Z,4.55
2023-05-06T18:59:28.744Z,4.55
2023-05-06T19:02:07.920Z,4.38
2023-05-06T19:04:34.414Z,5.28
2023-05-06T19:07:01.161Z,5.78
2023-05-06T19:09:28.639Z,5.00
2023-05-06T19:11:55.743Z,4.47
2023-05-06T19:16:51.876Z,5.45
2023-05-06T19:19:18.671Z,6.22
2023-05-06T19:21:45.412Z,6.25
2023-05-06T19:24:12.126Z,6.30
2023-05-06T19:26:46.095Z,6.60
2023-05-06T19:29:12.823Z,6.03
2023-05-06T19:31:39.296Z,6.30
2023-05-06T19:34:05.872Z,7.63
2023-05-06T19:36:32.426Z,7.85
2023-05-06T19:38:58.940Z,7.90
2023-05-06T19:41:25.636Z,7.70
2023-05-06T19:43:52.062Z,7.65
2023-05-06T19:46:18.549Z,8.32
2023-05-06T19:48:46.275Z,7.75
2023-05-06T19:51:12.692Z,7.40
2023-05-06T19:53:39.152Z,7.18
2023-05-06T19:56:13.412Z,7.22
2023-05-06T19:58:40.627Z,6.60
2023-05-06T20:01:07.220Z,6.45
2023-05-06T20:03:35.776Z,6.50
2023-05-06T20:06:03.105Z,7.35
2023-05-06T20:08:30.953Z,7.28
2023-05-06T20:10:57.361Z,6.82
2023-05-06T20:13:23.881Z,6.07
2023-05-06T20:15:50.995Z,6.05
2023-05-06T20:18:17.499Z,6.38
2023-05-06T20:20:44.130Z,6.50
2023-05-06T20:23:10.637Z,7.28
2023-05-06T20:25:37.241Z,6.72
2023-05-06T20:28:05.669Z,6.88
2023-05-06T20:30:32.419Z,6.60
2023-05-06T20:32:59.249Z,6.93
2023-05-06T20:35:26.932Z,6.97
2023-05-06T20:37:54.551Z,6.45
2023-05-06T20:40:21.360Z,6.90
2023-05-06T20:42:48.425Z,7.10
2023-05-06T20:47:41.487Z,6.78
2023-05-06T20:50:08.202Z,7.70
2023-05-06T20:52:34.624Z,7.32
2023-05-06T20:55:01.716Z,7.85
2023-05-06T20:59:56.072Z,7.28
2023-05-06T21:02:22.647Z,8.18
2023-05-06T21:04:49.245Z,8.15
2023-05-06T21:07:15.759Z,8.60
2023-05-06T21:09:42.317Z,8.48
2023-05-06T21:12:08.768Z,8.73
2023-05-06T21:14:35.327Z,8.82
2023-05-06T21:17:01.805Z,9.32
2023-05-06T21:19:28.609Z,9.70
2023-05-06T21:21:54.997Z,9.38
2023-05-06T21:24:21.427Z,10.68
2023-05-06T21:26:47.861Z,11.57
2023-05-06T21:29:14.316Z,9.77
2023-05-06T21:31:40.860Z,9.63
2023-05-06T21:34:08.009Z,10.88
2023-05-06T21:39:09.789Z,11.57
2023-05-06T21:41:36.334Z,11.45
2023-05-06T21:44:04.751Z,11.50
2023-05-06T21:46:32.391Z,12.05
2023-05-06T21:48:59.734Z,12.00
2023-05-06T21:53:57.008Z,11.50
2023-05-06T21:56:24.287Z,12.68
2023-05-06T21:58:51.330Z,11.98
2023-05-06T22:01:18.144Z,12.25
2023-05-06T22:03:46.989Z,12.48
2023-05-06T22:06:14.103Z,13.20
2023-05-06T22:08:41.114Z,13.90
2023-05-06T22:11:07.710Z,13.18
2023-05-06T22:13:34.264Z,14.35
2023-05-06T22:16:00.890Z,14.20
2023-05-06T22:18:29.872Z,15.00
2023-05-06T22:20:57.760Z,15.93
2023-05-06T22:23:24.884Z,15.32
2023-05-06T22:25:52.146Z,15.95
2023-05-06T22:28:19.298Z,15.20
2023-05-06T22:30:46.041Z,15.13
2023-05-06T22:33:12.586Z,16.20
2023-05-06T22:35:39.018Z,15.18
2023-05-06T22:38:05.647Z,15.65
2023-05-06T22:40:32.063Z,15.30
2023-05-06T22:42:58.548Z,16.33
2023-05-06T22:45:24.952Z,15.60
2023-05-06T22:47:51.349Z,15.43
2023-05-06T22:50:17.777Z,15.77
2023-05-06T22:52:44.242Z,14.07
2023-05-06T22:55:11.044Z,15.43
2023-05-06T22:57:37.773Z,14.65
2023-05-06T23:00:06.706Z,15.57
2023-05-06T23:02:33.170Z,15.13
2023-05-06T23:04:59.752Z,15.82
2023-05-06T23:07:26.191Z,16.30
2023-05-06T23:09:52.697Z,15.55
2023-05-06T23:12:19.143Z,15.57
2023-05-06T23:14:45.676Z,15.30
2023-05-06T23:17:12.177Z,16.67
2023-05-06T23:19:40.702Z,15.70
2023-05-06T23:22:07.169Z,15.50
2023-05-06T23:24:33.585Z,15.85
2023-05-06T23:27:00.119Z,15.00
2023-05-06T23:29:26.610Z,15.07
2023-05-06T23:31:53.113Z,15.27
2023-05-06T23:34:19.620Z,15.80
2023-05-06T23:36:46.011Z,16.45
2023-05-06T23:39:12.632Z,16.37
2023-05-06T23:41:39.029Z,16.27
2023-05-06T23:44:06.071Z,15.80
2023-05-06T23:46:32.675Z,15.98
2023-05-06T23:48:59.167Z,15.75
2023-05-06T23:51:26.510Z,14.85
2023-05-06T23:53:53.080Z,15.43
2023-05-06T23:56:20.539Z,14.35
2023-05-06T23:58:47.060Z,15.45
